TimeEST,TemperatureF,Dew PointF,Humidity,Sea Level PressureIn,VisibilityMPH,Wind Direction,Wind SpeedMPH,Gust SpeedMPH,PrecipitationIn,Events,Conditions,WindDirDegrees,DateUTC
12:53 AM,39.9,37.9,93,29.73,10.0,NW,3.5,-,N/A,,Clear,310,2013-02-12 05:53:00
1:53 AM,39.9,37.0,89,29.73,10.0,West,8.1,-,N/A,,Clear,270,2013-02-12 06:53:00
2:53 AM,39.9,32.0,73,29.74,10.0,WNW,9.2,-,N/A,,Scattered Clouds,290,2013-02-12 07:53:00
3:53 AM,39.9,28.0,63,29.76,10.0,WNW,10.4,18.4,N/A,,Overcast,290,2013-02-12 08:53:00
4:53 AM,37.9,28.0,68,29.77,10.0,West,6.9,-,N/A,,Partly Cloudy,270,2013-02-12 09:53:00
5:53 AM,39.0,26.1,60,29.79,10.0,WNW,11.5,-,N/A,,Mostly Cloudy,290,2013-02-12 10:53:00
6:53 AM,37.9,27.0,65,29.80,10.0,West,10.4,-,N/A,,Mostly Cloudy,260,2013-02-12 11:53:00
7:53 AM,39.9,26.1,58,29.83,10.0,West,11.5,19.6,N/A,,Mostly Cloudy,280,2013-02-12 12:53:00
8:53 AM,41.0,25.0,53,29.85,10.0,West,15.0,21.9,N/A,,Overcast,280,2013-02-12 13:53:00
9:53 AM,42.1,24.1,49,29.86,10.0,WNW,11.5,23.0,N/A,,Overcast,290,2013-02-12 14:53:00
10:53 AM,42.1,24.1,49,29.87,10.0,WNW,11.5,21.9,N/A,,Overcast,300,2013-02-12 15:53:00
11:53 AM,43.0,25.0,49,29.87,10.0,WNW,12.7,21.9,N/A,,Overcast,290,2013-02-12 16:53:00
12:53 PM,43.0,24.1,47,29.88,10.0,WNW,17.3,24.2,N/A,,Scattered Clouds,300,2013-02-12 17:53:00
1:53 PM,43.0,25.0,49,29.87,10.0,WNW,11.5,21.9,N/A,,Overcast,300,2013-02-12 18:53:00
2:53 PM,43.0,25.0,49,29.87,10.0,WNW,13.8,26.5,N/A,,Partly Cloudy,300,2013-02-12 19:53:00
3:53 PM,44.1,24.1,45,29.85,10.0,NW,9.2,17.3,N/A,,Scattered Clouds,310,2013-02-12 20:53:00
4:53 PM,42.1,24.1,49,29.82,10.0,NNW,9.2,-,N/A,,Clear,330,2013-02-12 21:53:00
5:53 PM,39.9,24.1,53,29.94,10.0,West,9.2,-,N/A,,Scattered Clouds,270,2013-02-12 22:53:00
6:53 PM,39.9,25.0,55,29.96,10.0,West,6.9,-,N/A,,Overcast,280,2013-02-12 23:53:00
7:53 PM,39.9,24.1,53,29.96,10.0,West,10.4,-,N/A,,Overcast,280,2013-02-13 00:53:00
8:53 PM,37.9,24.1,57,29.94,10.0,WNW,8.1,-,N/A,,Clear,300,2013-02-13 01:53:00
9:53 PM,37.0,24.1,59,29.91,10.0,Calm,Calm,-,N/A,,Clear,0,2013-02-13 02:53:00
10:53 PM,33.1,24.1,70,29.91,10.0,Calm,Calm,-,N/A,,Clear,0,2013-02-13 03:53:00
11:53 PM,34.0,24.1,67,29.93,10.0,West,4.6,-,N/A,,Clear,280,2013-02-13 04:53:00